sensor_id;sensor_type;location;lat;lon;timestamp;pressure;altitude;pressure_sealevel;temperature;humidity
62548;BME280;48602;45.192;5.722;2023-03-26T00:01:46;99082.50;;;13.46;55.82
62548;BME280;48602;45.192;5.722;2023-03-26T00:04:14;99087.03;;;13.44;55.67
62548;BME280;48602;45.192;5.722;2023-03-26T00:06:45;99098.56;;;13.43;55.95
62548;BME280;48602;45.192;5.722;2023-03-26T00:09:13;99101.28;;;13.41;56.08
62548;BME280;48602;45.192;5.722;2023-03-26T00:11:41;99090.69;;;13.41;56.08
62548;BME280;48602;45.192;5.722;2023-03-26T00:14:08;99085.41;;;13.41;56.30
62548;BME280;48602;45.192;5.722;2023-03-26T00:16:34;99083.72;;;13.40;56.02
62548;BME280;48602;45.192;5.722;2023-03-26T00:19:02;99077.56;;;13.40;56.32
62548;BME280;48602;45.192;5.722;2023-03-26T00:21:29;99068.84;;;13.38;56.54
62548;BME280;48602;45.192;5.722;2023-03-26T00:23:57;99060.97;;;13.36;56.63
62548;BME280;48602;45.192;5.722;2023-03-26T00:26:26;99076.16;;;13.33;56.21
62548;BME280;48602;45.192;5.722;2023-03-26T00:28:53;99078.03;;;13.31;56.40
62548;BME280;48602;45.192;5.722;2023-03-26T00:31:19;99074.50;;;13.30;56.27
62548;BME280;48602;45.192;5.722;2023-03-26T00:33:44;99055.97;;;13.30;55.66
62548;BME280;48602;45.192;5.722;2023-03-26T00:36:13;99055.03;;;13.31;55.08
62548;BME280;48602;45.192;5.722;2023-03-26T00:38:40;99062.84;;;13.34;55.01
62548;BME280;48602;45.192;5.722;2023-03-26T00:41:07;99068.91;;;13.36;54.91
62548;BME280;48602;45.192;5.722;2023-03-26T00:43:43;99064.41;;;13.38;54.76
62548;BME280;48602;45.192;5.722;2023-03-26T00:46:08;99061.56;;;13.41;54.96
62548;BME280;48602;45.192;5.722;2023-03-26T00:48:34;99060.56;;;13.44;54.72
62548;BME280;48602;45.192;5.722;2023-03-26T00:51:03;99048.94;;;13.46;54.85
62548;BME280;48602;45.192;5.722;2023-03-26T00:53:30;99049.72;;;13.48;54.89
62548;BME280;48602;45.192;5.722;2023-03-26T00:55:56;99045.28;;;13.49;54.77
62548;BME280;48602;45.192;5.722;2023-03-26T00:58:25;99026.66;;;13.50;54.68
62548;BME280;48602;45.192;5.722;2023-03-26T01:00:54;99036.31;;;13.51;54.70
62548;BME280;48602;45.192;5.722;2023-03-26T01:03:24;99034.53;;;13.52;54.42
62548;BME280;48602;45.192;5.722;2023-03-26T01:06:29;99032.66;;;13.54;54.58
62548;BME280;48602;45.192;5.722;2023-03-26T01:09:20;99020.34;;;13.53;54.76
62548;BME280;48602;45.192;5.722;2023-03-26T01:11:47;99023.00;;;13.53;55.29
62548;BME280;48602;45.192;5.722;2023-03-26T01:14:17;99036.41;;;13.50;55.90
62548;BME280;48602;45.192;5.722;2023-03-26T01:16:55;99045.53;;;13.44;56.19
62548;BME280;48602;45.192;5.722;2023-03-26T01:19:30;99053.72;;;13.40;56.47
62548;BME280;48602;45.192;5.722;2023-03-26T01:22:06;99071.47;;;13.38;56.78
62548;BME280;48602;45.192;5.722;2023-03-26T01:24:35;99055.03;;;13.31;56.85
62548;BME280;48602;45.192;5.722;2023-03-26T01:30:02;99043.16;;;13.22;57.02
62548;BME280;48602;45.192;5.722;2023-03-26T01:32:33;99043.47;;;13.16;57.22
62548;BME280;48602;45.192;5.722;2023-03-26T01:40:27;99030.06;;;13.02;57.71
62548;BME280;48602;45.192;5.722;2023-03-26T01:42:56;99038.16;;;12.99;57.31
62548;BME280;48602;45.192;5.722;2023-03-26T01:45:27;99058.69;;;12.94;57.72
62548;BME280;48602;45.192;5.722;2023-03-26T01:47:55;99049.97;;;12.92;57.67
62548;BME280;48602;45.192;5.722;2023-03-26T01:50:21;99052.53;;;12.93;57.91
62548;BME280;48602;45.192;5.722;2023-03-26T01:52:46;99035.81;;;12.93;57.93
62548;BME280;48602;45.192;5.722;2023-03-26T01:55:12;99035.72;;;12.94;57.65
62548;BME280;48602;45.192;5.722;2023-03-26T02:03:10;99026.88;;;12.96;57.13
62548;BME280;48602;45.192;5.722;2023-03-26T02:06:06;99018.78;;;12.99;57.44
62548;BME280;48602;45.192;5.722;2023-03-26T02:08:44;99013.47;;;12.99;57.83
62548;BME280;48602;45.192;5.722;2023-03-26T02:11:13;99024.94;;;12.99;58.54
62548;BME280;48602;45.192;5.722;2023-03-26T02:13:40;99013.41;;;13.00;59.20
62548;BME280;48602;45.192;5.722;2023-03-26T02:16:11;99009.13;;;12.98;59.43
62548;BME280;48602;45.192;5.722;2023-03-26T02:18:41;99016.19;;;12.97;59.66
62548;BME280;48602;45.192;5.722;2023-03-26T02:21:09;99005.69;;;12.96;59.92
62548;BME280;48602;45.192;5.722;2023-03-26T02:23:37;99009.28;;;12.94;59.95
62548;BME280;48602;45.192;5.722;2023-03-26T02:26:09;99008.34;;;12.96;60.27
62548;BME280;48602;45.192;5.722;2023-03-26T02:28:36;99004.84;;;12.95;60.98
62548;BME280;48602;45.192;5.722;2023-03-26T02:31:02;99005.78;;;12.94;60.77
62548;BME280;48602;45.192;5.722;2023-03-26T02:33:29;99012.84;;;12.93;60.66
62548;BME280;48602;45.192;5.722;2023-03-26T02:35:55;99020.00;;;12.91;61.02
62548;BME280;48602;45.192;5.722;2023-03-26T02:38:30;99020.13;;;12.90;60.87
62548;BME280;48602;45.192;5.722;2023-03-26T02:41:03;99028.13;;;12.88;61.48
62548;BME280;48602;45.192;5.722;2023-03-26T02:43:29;99012.41;;;12.85;62.25
62548;BME280;48602;45.192;5.722;2023-03-26T02:45:54;99004.53;;;12.84;62.08
62548;BME280;48602;45.192;5.722;2023-03-26T02:48:20;98994.13;;;12.81;62.38
62548;BME280;48602;45.192;5.722;2023-03-26T02:50:47;98989.81;;;12.78;62.29
62548;BME280;48602;45.192;5.722;2023-03-26T02:53:17;98998.78;;;12.76;62.87
62548;BME280;48602;45.192;5.722;2023-03-26T02:55:43;98998.09;;;12.72;63.25
62548;BME280;48602;45.192;5.722;2023-03-26T02:58:09;98993.97;;;12.67;63.66
62548;BME280;48602;45.192;5.722;2023-03-26T03:00:36;98987.97;;;12.63;64.01
62548;BME280;48602;45.192;5.722;2023-03-26T03:03:04;98976.69;;;12.59;63.90
62548;BME280;48602;45.192;5.722;2023-03-26T03:05:32;98977.69;;;12.57;64.37
62548;BME280;48602;45.192;5.722;2023-03-26T03:08:05;98967.28;;;12.54;63.88
62548;BME280;48602;45.192;5.722;2023-03-26T03:10:32;98962.16;;;12.51;63.86
62548;BME280;48602;45.192;5.722;2023-03-26T03:12:58;98953.44;;;12.49;63.85
62548;BME280;48602;45.192;5.722;2023-03-26T03:15:24;98939.50;;;12.45;63.68
62548;BME280;48602;45.192;5.722;2023-03-26T03:17:49;98932.75;;;12.40;63.96
62548;BME280;48602;45.192;5.722;2023-03-26T03:20:16;98928.47;;;12.37;64.29
62548;BME280;48602;45.192;5.722;2023-03-26T03:22:42;98932.97;;;12.35;64.66
62548;BME280;48602;45.192;5.722;2023-03-26T03:25:08;98926.13;;;12.31;64.83
62548;BME280;48602;45.192;5.722;2023-03-26T03:27:41;98921.84;;;12.29;65.02
62548;BME280;48602;45.192;5.722;2023-03-26T03:30:09;98916.72;;;12.26;65.11
62548;BME280;48602;45.192;5.722;2023-03-26T03:32:37;98916.91;;;12.22;65.16
62548;BME280;48602;45.192;5.722;2023-03-26T03:35:03;98907.25;;;12.21;64.99
62548;BME280;48602;45.192;5.722;2023-03-26T03:37:29;98906.41;;;12.21;64.67
62548;BME280;48602;45.192;5.722;2023-03-26T03:39:54;98906.53;;;12.18;65.11
62548;BME280;48602;45.192;5.722;2023-03-26T03:42:20;98893.41;;;12.16;64.99
62548;BME280;48602;45.192;5.722;2023-03-26T03:44:46;98889.03;;;12.15;64.90
62548;BME280;48602;45.192;5.722;2023-03-26T03:47:11;98887.34;;;12.14;64.62
62548;BME280;48602;45.192;5.722;2023-03-26T03:49:40;98884.69;;;12.14;64.62
62548;BME280;48602;45.192;5.722;2023-03-26T03:52:07;98870.63;;;12.14;64.66
62548;BME280;48602;45.192;5.722;2023-03-26T03:54:32;98863.63;;;12.13;65.03
62548;BME280;48602;45.192;5.722;2023-03-26T03:56:58;98857.41;;;12.14;64.26
62548;BME280;48602;45.192;5.722;2023-03-26T03:59:23;98867.06;;;12.15;63.64
62548;BME280;48602;45.192;5.722;2023-03-26T04:01:49;98863.47;;;12.16;63.38
62548;BME280;48602;45.192;5.722;2023-03-26T04:04:15;98865.13;;;12.18;63.05
62548;BME280;48602;45.192;5.722;2023-03-26T04:06:41;98862.31;;;12.21;63.51
62548;BME280;48602;45.192;5.722;2023-03-26T04:09:08;98856.00;;;12.24;63.33
62548;BME280;48602;45.192;5.722;2023-03-26T04:11:35;98848.00;;;12.26;62.44
62548;BME280;48602;45.192;5.722;2023-03-26T04:14:00;98853.19;;;12.27;62.04
62548;BME280;48602;45.192;5.722;2023-03-26T04:16:25;98846.84;;;12.31;62.02
62548;BME280;48602;45.192;5.722;2023-03-26T04:18:51;98828.19;;;12.34;60.90
62548;BME280;48602;45.192;5.722;2023-03-26T04:21:16;98832.31;;;12.40;60.21
62548;BME280;48602;45.192;5.722;2023-03-26T04:23:42;98829.31;;;12.46;59.50
62548;BME280;48602;45.192;5.722;2023-03-26T04:26:12;98818.44;;;12.52;59.05
62548;BME280;48602;45.192;5.722;2023-03-26T04:29:01;98814.50;;;12.59;58.80
62548;BME280;48602;45.192;5.722;2023-03-26T04:31:28;98815.97;;;12.65;58.25
62548;BME280;48602;45.192;5.722;2023-03-26T04:34:16;98817.44;;;12.70;57.94
62548;BME280;48602;45.192;5.722;2023-03-26T04:36:44;98818.03;;;12.75;57.43
62548;BME280;48602;45.192;5.722;2023-03-26T04:39:11;98810.81;;;12.79;57.31
62548;BME280;48602;45.192;5.722;2023-03-26T04:41:37;98806.97;;;12.84;57.43
62548;BME280;48602;45.192;5.722;2023-03-26T04:44:03;98802.38;;;12.88;57.16
62548;BME280;48602;45.192;5.722;2023-03-26T04:46:29;98797.75;;;12.91;56.79
62548;BME280;48602;45.192;5.722;2023-03-26T04:48:58;98787.78;;;12.97;56.84
62548;BME280;48602;45.192;5.722;2023-03-26T04:51:26;98794.63;;;13.01;56.51
62548;BME280;48602;45.192;5.722;2023-03-26T04:53:59;98797.88;;;13.06;56.47
62548;BME280;48602;45.192;5.722;2023-03-26T04:56:47;98786.16;;;13.10;56.38
62548;BME280;48602;45.192;5.722;2023-03-26T04:59:19;98773.59;;;13.13;55.97
62548;BME280;48602;45.192;5.722;2023-03-26T05:01:50;98766.53;;;13.14;55.91
62548;BME280;48602;45.192;5.722;2023-03-26T05:04:16;98776.13;;;13.16;55.77
62548;BME280;48602;45.192;5.722;2023-03-26T05:06:41;98768.09;;;13.18;56.31
62548;BME280;48602;45.192;5.722;2023-03-26T05:09:07;98771.44;;;13.21;55.91
62548;BME280;48602;45.192;5.722;2023-03-26T05:11:35;98766.16;;;13.21;55.72
62548;BME280;48602;45.192;5.722;2023-03-26T05:14:00;98753.69;;;13.23;55.56
62548;BME280;48602;45.192;5.722;2023-03-26T05:16:33;98748.28;;;13.25;55.22
62548;BME280;48602;45.192;5.722;2023-03-26T05:18:59;98751.69;;;13.27;54.89
62548;BME280;48602;45.192;5.722;2023-03-26T05:21:25;98744.44;;;13.31;54.89
62548;BME280;48602;45.192;5.722;2023-03-26T05:23:50;98751.25;;;13.35;55.25
62548;BME280;48602;45.192;5.722;2023-03-26T05:26:16;98764.41;;;13.36;54.93
62548;BME280;48602;45.192;5.722;2023-03-26T05:28:42;98783.72;;;13.38;55.71
62548;BME280;48602;45.192;5.722;2023-03-26T05:31:09;98790.72;;;13.39;55.70
62548;BME280;48602;45.192;5.722;2023-03-26T05:33:35;98776.34;;;13.43;55.29
62548;BME280;48602;45.192;5.722;2023-03-26T05:36:04;98761.47;;;13.41;55.33
62548;BME280;48602;45.192;5.722;2023-03-26T05:38:30;98770.28;;;13.41;55.08
62548;BME280;48602;45.192;5.722;2023-03-26T05:41:00;98758.75;;;13.42;54.75
62548;BME280;48602;45.192;5.722;2023-03-26T05:43:28;98755.16;;;13.43;54.81
62548;BME280;48602;45.192;5.722;2023-03-26T05:45:53;98770.13;;;13.44;55.36
62548;BME280;48602;45.192;5.722;2023-03-26T05:48:22;98746.09;;;13.47;55.56
62548;BME280;48602;45.192;5.722;2023-03-26T05:50:49;98734.66;;;13.47;55.79
62548;BME280;48602;45.192;5.722;2023-03-26T05:53:14;98745.25;;;13.47;55.61
62548;BME280;48602;45.192;5.722;2023-03-26T05:55:42;98732.88;;;13.47;55.89
62548;BME280;48602;45.192;5.722;2023-03-26T05:58:10;98733.63;;;13.49;55.82
62548;BME280;48602;45.192;5.722;2023-03-26T06:00:35;98721.25;;;13.50;56.39
62548;BME280;48602;45.192;5.722;2023-03-26T06:03:03;98724.75;;;13.50;55.87
62548;BME280;48602;45.192;5.722;2023-03-26T06:05:39;98721.34;;;13.48;56.58
62548;BME280;48602;45.192;5.722;2023-03-26T06:08:07;98713.56;;;13.45;57.65
62548;BME280;48602;45.192;5.722;2023-03-26T06:10:37;98708.72;;;13.38;58.73
62548;BME280;48602;45.192;5.722;2023-03-26T06:13:04;98724.19;;;13.30;59.69
62548;BME280;48602;45.192;5.722;2023-03-26T06:15:31;98746.56;;;13.24;59.89
62548;BME280;48602;45.192;5.722;2023-03-26T06:17:57;98763.66;;;13.18;60.60
62548;BME280;48602;45.192;5.722;2023-03-26T06:20:23;98768.31;;;13.13;61.25
62548;BME280;48602;45.192;5.722;2023-03-26T06:22:48;98767.63;;;13.10;61.63
62548;BME280;48602;45.192;5.722;2023-03-26T06:25:14;98762.53;;;13.07;62.02
62548;BME280;48602;45.192;5.722;2023-03-26T06:27:39;98760.13;;;13.02;62.09
62548;BME280;48602;45.192;5.722;2023-03-26T06:30:06;98772.69;;;12.99;63.01
62548;BME280;48602;45.192;5.722;2023-03-26T06:32:32;98770.28;;;12.94;63.63
62548;BME280;48602;45.192;5.722;2023-03-26T06:34:57;98783.94;;;12.86;63.88
62548;BME280;48602;45.192;5.722;2023-03-26T06:37:23;98772.66;;;12.67;64.58
62548;BME280;48602;45.192;5.722;2023-03-26T06:39:48;98759.56;;;12.48;64.25
62548;BME280;48602;45.192;5.722;2023-03-26T06:42:18;98745.28;;;12.35;63.88
62548;BME280;48602;45.192;5.722;2023-03-26T06:44:44;98747.25;;;12.32;64.71
62548;BME280;48602;45.192;5.722;2023-03-26T06:47:09;98778.03;;;12.33;65.80
62548;BME280;48602;45.192;5.722;2023-03-26T06:49:35;98772.81;;;12.31;65.29
62548;BME280;48602;45.192;5.722;2023-03-26T06:52:02;98757.91;;;12.30;65.81
62548;BME280;48602;45.192;5.722;2023-03-26T06:54:28;98743.66;;;12.33;66.11
62548;BME280;48602;45.192;5.722;2023-03-26T06:56:54;98732.09;;;12.35;66.53
62548;BME280;48602;45.192;5.722;2023-03-26T06:59:19;98755.88;;;12.35;67.17
62548;BME280;48602;45.192;5.722;2023-03-26T07:01:44;98754.09;;;12.36;67.47
62548;BME280;48602;45.192;5.722;2023-03-26T07:04:10;98754.94;;;12.36;67.80
62548;BME280;48602;45.192;5.722;2023-03-26T07:06:35;98746.38;;;12.31;68.60
62548;BME280;48602;45.192;5.722;2023-03-26T07:09:01;98735.03;;;12.29;68.68
62548;BME280;48602;45.192;5.722;2023-03-26T07:11:26;98732.63;;;12.24;68.65
62548;BME280;48602;45.192;5.722;2023-03-26T07:14:00;98730.34;;;12.18;68.45
62548;BME280;48602;45.192;5.722;2023-03-26T07:16:27;98726.22;;;12.13;69.18
62548;BME280;48602;45.192;5.722;2023-03-26T07:18:53;98737.78;;;12.10;68.75
62548;BME280;48602;45.192;5.722;2023-03-26T07:21:20;98758.22;;;12.07;69.31
62548;BME280;48602;45.192;5.722;2023-03-26T07:23:46;98767.88;;;12.08;69.52
62548;BME280;48602;45.192;5.722;2023-03-26T07:29:17;98786.06;;;12.14;69.32
62548;BME280;48602;45.192;5.722;2023-03-26T07:45:46;98780.72;;;11.81;70.39
62548;BME280;48602;45.192;5.722;2023-03-26T07:48:19;98756.47;;;11.73;70.81
62548;BME280;48602;45.192;5.722;2023-03-26T07:50:46;98764.47;;;11.71;70.79
62548;BME280;48602;45.192;5.722;2023-03-26T07:53:13;98772.31;;;11.73;71.46
62548;BME280;48602;45.192;5.722;2023-03-26T08:07:08;98777.22;;;11.98;71.31
62548;BME280;48602;45.192;5.722;2023-03-26T08:13:14;98790.66;;;11.93;71.37
62548;BME280;48602;45.192;5.722;2023-03-26T08:15:55;98798.56;;;11.93;72.13
62548;BME280;48602;45.192;5.722;2023-03-26T08:23:47;98790.50;;;11.96;72.74
62548;BME280;48602;45.192;5.722;2023-03-26T08:26:30;98776.50;;;11.94;72.33
62548;BME280;48602;45.192;5.722;2023-03-26T08:31:43;98798.84;;;11.88;73.20
62548;BME280;48602;45.192;5.722;2023-03-26T08:34:11;98802.56;;;11.84;73.47
62548;BME280;48602;45.192;5.722;2023-03-26T08:36:37;98806.28;;;11.80;73.58
62548;BME280;48602;45.192;5.722;2023-03-26T08:39:03;98795.78;;;11.79;73.74
62548;BME280;48602;45.192;5.722;2023-03-26T08:41:39;98786.94;;;11.80;73.97
62548;BME280;48602;45.192;5.722;2023-03-26T08:53:48;98798.72;;;11.73;75.46
62548;BME280;48602;45.192;5.722;2023-03-26T09:05:23;98802.34;;;11.70;76.32
62548;BME280;48602;45.192;5.722;2023-03-26T09:19:59;98848.97;;;11.71;77.00
62548;BME280;48602;45.192;5.722;2023-03-26T09:30:51;98836.69;;;11.70;77.09
62548;BME280;48602;45.192;5.722;2023-03-26T09:41:51;98809.91;;;11.78;78.38
62548;BME280;48602;45.192;5.722;2023-03-26T09:58:03;98831.97;;;11.77;79.19
62548;BME280;48602;45.192;5.722;2023-03-26T10:00:50;98824.75;;;11.80;79.33
62548;BME280;48602;45.192;5.722;2023-03-26T10:03:36;98799.69;;;11.89;79.08
62548;BME280;48602;45.192;5.722;2023-03-26T10:14:51;98810.91;;;12.27;79.35
62548;BME280;48602;45.192;5.722;2023-03-26T10:20:01;98790.31;;;12.34;78.03
62548;BME280;48602;45.192;5.722;2023-03-26T10:28:08;98770.50;;;12.58;75.92
62548;BME280;48602;45.192;5.722;2023-03-26T10:44:39;98743.72;;;12.80;75.30
62548;BME280;48602;45.192;5.722;2023-03-26T10:48:07;98744.09;;;12.89;75.47
62548;BME280;48602;45.192;5.722;2023-03-26T10:53:26;98711.13;;;13.26;75.45
62548;BME280;48602;45.192;5.722;2023-03-26T10:55:59;98709.28;;;13.43;74.81
62548;BME280;48602;45.192;5.722;2023-03-26T10:58:33;98711.91;;;13.58;74.38
62548;BME280;48602;45.192;5.722;2023-03-26T11:01:04;98719.91;;;13.73;74.06
62548;BME280;48602;45.192;5.722;2023-03-26T11:09:00;98696.94;;;13.87;72.78
62548;BME280;48602;45.192;5.722;2023-03-26T11:19:39;98700.63;;;13.85;72.63
62548;BME280;48602;45.192;5.722;2023-03-26T11:22:32;98708.66;;;13.83;72.47
62548;BME280;48602;45.192;5.722;2023-03-26T11:28:49;98726.56;;;13.94;72.12
62548;BME280;48602;45.192;5.722;2023-03-26T11:34:05;98692.78;;;14.12;72.18
62548;BME280;48602;45.192;5.722;2023-03-26T11:36:38;98703.88;;;14.18;71.64
62548;BME280;48602;45.192;5.722;2023-03-26T11:39:10;98702.53;;;14.25;71.74
62548;BME280;48602;45.192;5.722;2023-03-26T11:41:38;98701.03;;;14.36;71.52
62548;BME280;48602;45.192;5.722;2023-03-26T11:44:23;98698.88;;;14.42;71.79
62548;BME280;48602;45.192;5.722;2023-03-26T11:46:55;98695.28;;;14.43;71.48
62548;BME280;48602;45.192;5.722;2023-03-26T11:49:24;98680.78;;;14.49;72.09
62548;BME280;48602;45.192;5.722;2023-03-26T11:51:50;98670.84;;;14.52;71.53
62548;BME280;48602;45.192;5.722;2023-03-26T11:54:16;98678.59;;;14.55;71.71
62548;BME280;48602;45.192;5.722;2023-03-26T12:01:51;98691.78;;;14.57;70.17
62548;BME280;48602;45.192;5.722;2023-03-26T12:04:40;98680.69;;;14.50;70.05
62548;BME280;48602;45.192;5.722;2023-03-26T12:07:16;98677.09;;;14.51;70.43
62548;BME280;48602;45.192;5.722;2023-03-26T12:12:18;98677.66;;;14.56;69.83
62548;BME280;48602;45.192;5.722;2023-03-26T12:14:46;98676.50;;;14.60;69.74
62548;BME280;48602;45.192;5.722;2023-03-26T12:17:14;98671.56;;;14.69;69.68
62548;BME280;48602;45.192;5.722;2023-03-26T12:19:48;98652.09;;;14.82;68.96
62548;BME280;48602;45.192;5.722;2023-03-26T12:22:33;98620.28;;;14.95;69.22
62548;BME280;48602;45.192;5.722;2023-03-26T12:27:27;98604.75;;;15.16;70.42
62548;BME280;48602;45.192;5.722;2023-03-26T12:30:17;98597.53;;;15.30;70.35
62548;BME280;48602;45.192;5.722;2023-03-26T12:32:44;98604.56;;;15.44;68.63
62548;BME280;48602;45.192;5.722;2023-03-26T12:35:15;98605.66;;;15.54;68.75
62548;BME280;48602;45.192;5.722;2023-03-26T12:37:43;98610.81;;;15.57;68.39
62548;BME280;48602;45.192;5.722;2023-03-26T12:43:24;98607.31;;;15.57;67.71
62548;BME280;48602;45.192;5.722;2023-03-26T12:45:56;98596.44;;;15.60;67.42
62548;BME280;48602;45.192;5.722;2023-03-26T12:48:25;98603.69;;;15.58;67.55
62548;BME280;48602;45.192;5.722;2023-03-26T12:56:24;98605.25;;;15.60;67.19
62548;BME280;48602;45.192;5.722;2023-03-26T13:04:54;98573.81;;;15.67;65.88
62548;BME280;48602;45.192;5.722;2023-03-26T13:19:11;98621.66;;;14.47;67.33
62548;BME280;48602;45.192;5.722;2023-03-26T13:29:59;98750.56;;;13.00;66.34
62548;BME280;48602;45.192;5.722;2023-03-26T13:32:55;98703.19;;;12.48;66.34
62548;BME280;48602;45.192;5.722;2023-03-26T13:38:41;98720.03;;;12.30;68.92
62548;BME280;48602;45.192;5.722;2023-03-26T13:44:09;98695.31;;;12.31;67.79
62548;BME280;48602;45.192;5.722;2023-03-26T13:46:44;98673.00;;;12.36;65.60
62548;BME280;48602;45.192;5.722;2023-03-26T13:49:13;98654.22;;;12.41;66.25
62548;BME280;48602;45.192;5.722;2023-03-26T13:51:54;98658.69;;;12.56;65.28
62548;BME280;48602;45.192;5.722;2023-03-26T13:54:48;98651.41;;;12.75;65.09
62548;BME280;48602;45.192;5.722;2023-03-26T13:57:45;98638.84;;;12.94;61.82
62548;BME280;48602;45.192;5.722;2023-03-26T14:00:17;98650.78;;;13.02;63.13
62548;BME280;48602;45.192;5.722;2023-03-26T14:02:52;98652.03;;;13.10;62.48
62548;BME280;48602;45.192;5.722;2023-03-26T14:05:23;98645.31;;;13.20;62.66
62548;BME280;48602;45.192;5.722;2023-03-26T14:11:30;98642.00;;;13.75;61.98
62548;BME280;48602;45.192;5.722;2023-03-26T14:14:09;98645.66;;;14.03;60.35
62548;BME280;48602;45.192;5.722;2023-03-26T14:16:42;98642.50;;;14.39;60.80
62548;BME280;48602;45.192;5.722;2023-03-26T14:22:24;98613.16;;;15.22;57.63
62548;BME280;48602;45.192;5.722;2023-03-26T14:25:41;98610.72;;;15.72;53.78
62548;BME280;48602;45.192;5.722;2023-03-26T14:28:29;98620.25;;;16.12;54.03
62548;BME280;48602;45.192;5.722;2023-03-26T14:31:01;98623.69;;;16.51;54.34
62548;BME280;48602;45.192;5.722;2023-03-26T14:39:26;98605.47;;;16.45;54.42
62548;BME280;48602;45.192;5.722;2023-03-26T14:42:11;98596.22;;;16.50;55.07
62548;BME280;48602;45.192;5.722;2023-03-26T14:48:36;98602.91;;;16.92;54.25
62548;BME280;48602;45.192;5.722;2023-03-26T14:50:43;98587.34;;;17.10;54.58
62548;BME280;48602;45.192;5.722;2023-03-26T14:53:25;98576.28;;;16.92;53.42
62548;BME280;48602;45.192;5.722;2023-03-26T15:25:46;98573.34;;;15.35;54.87
62548;BME280;48602;45.192;5.722;2023-03-26T15:27:56;98571.94;;;15.17;55.29
62548;BME280;48602;45.192;5.722;2023-03-26T15:31:11;98575.91;;;14.97;55.57
62548;BME280;48602;45.192;5.722;2023-03-26T15:46:52;98566.16;;;14.29;56.84
62548;BME280;48602;45.192;5.722;2023-03-26T15:49:33;98551.03;;;14.31;57.76
62548;BME280;48602;45.192;5.722;2023-03-26T15:54:55;98538.22;;;14.52;56.85
62548;BME280;48602;45.192;5.722;2023-03-26T15:57:41;98529.72;;;14.60;55.62
62548;BME280;48602;45.192;5.722;2023-03-26T16:02:52;98519.69;;;14.78;52.87
62548;BME280;48602;45.192;5.722;2023-03-26T16:09:12;98516.13;;;14.91;51.94
62548;BME280;48602;45.192;5.722;2023-03-26T16:11:12;98510.72;;;14.93;50.90
62548;BME280;48602;45.192;5.722;2023-03-26T16:13:42;98498.63;;;14.89;50.65
62548;BME280;48602;45.192;5.722;2023-03-26T16:18:40;98493.91;;;14.80;51.41
62548;BME280;48602;45.192;5.722;2023-03-26T16:24:10;98479.88;;;14.65;51.63
62548;BME280;48602;45.192;5.722;2023-03-26T16:34:26;98457.25;;;14.32;53.98
62548;BME280;48602;45.192;5.722;2023-03-26T16:36:53;98455.75;;;14.28;53.43
62548;BME280;48602;45.192;5.722;2023-03-26T16:39:23;98451.59;;;14.24;53.71
62548;BME280;48602;45.192;5.722;2023-03-26T16:42:18;98446.53;;;14.21;53.52
62548;BME280;48602;45.192;5.722;2023-03-26T16:47:34;98429.91;;;14.05;54.10
62548;BME280;48602;45.192;5.722;2023-03-26T16:50:21;98427.00;;;13.95;53.67
62548;BME280;48602;45.192;5.722;2023-03-26T16:53:14;98423.06;;;13.88;53.22
62548;BME280;48602;45.192;5.722;2023-03-26T16:56:10;98419.00;;;13.83;52.91
62548;BME280;48602;45.192;5.722;2023-03-26T17:01:22;98407.00;;;13.77;52.80
62548;BME280;48602;45.192;5.722;2023-03-26T17:04:08;98414.94;;;13.77;53.02
62548;BME280;48602;45.192;5.722;2023-03-26T17:37:02;98372.69;;;13.61;56.74
62548;BME280;48602;45.192;5.722;2023-03-26T17:42:29;98373.00;;;13.57;56.91
62548;BME280;48602;45.192;5.722;2023-03-26T17:45:08;98366.00;;;13.56;57.57
62548;BME280;48602;45.192;5.722;2023-03-26T17:47:44;98364.41;;;13.53;57.81
62548;BME280;48602;45.192;5.722;2023-03-26T17:50:16;98363.47;;;13.54;57.86
62548;BME280;48602;45.192;5.722;2023-03-26T17:52:57;98361.94;;;13.50;58.28
62548;BME280;48602;45.192;5.722;2023-03-26T17:55:28;98361.38;;;13.45;58.81
62548;BME280;48602;45.192;5.722;2023-03-26T17:58:03;98372.25;;;13.41;59.60
62548;BME280;48602;45.192;5.722;2023-03-26T18:00:40;98369.06;;;13.36;60.00
62548;BME280;48602;45.192;5.722;2023-03-26T18:03:23;98362.25;;;13.32;60.32
62548;BME280;48602;45.192;5.722;2023-03-26T18:05:54;98360.00;;;13.25;60.94
62548;BME280;48602;45.192;5.722;2023-03-26T18:08:55;98357.66;;;13.21;61.26
62548;BME280;48602;45.192;5.722;2023-03-26T18:16:59;98338.81;;;13.11;62.45
62548;BME280;48602;45.192;5.722;2023-03-26T18:19:26;98341.56;;;13.10;63.10
62548;BME280;48602;45.192;5.722;2023-03-26T18:21:55;98342.41;;;13.10;63.31
62548;BME280;48602;45.192;5.722;2023-03-26T18:26:55;98345.34;;;13.06;64.29
62548;BME280;48602;45.192;5.722;2023-03-26T18:29:23;98348.28;;;13.01;64.88
62548;BME280;48602;45.192;5.722;2023-03-26T18:32:16;98357.94;;;13.02;64.91
62548;BME280;48602;45.192;5.722;2023-03-26T18:34:46;98356.31;;;13.00;65.29
62548;BME280;48602;45.192;5.722;2023-03-26T18:37:25;98371.44;;;12.98;65.72
62548;BME280;48602;45.192;5.722;2023-03-26T18:40:07;98382.28;;;12.93;65.42
62548;BME280;48602;45.192;5.722;2023-03-26T18:42:37;98382.69;;;12.87;66.11
62548;BME280;48602;45.192;5.722;2023-03-26T18:45:12;98387.47;;;12.80;65.04
62548;BME280;48602;45.192;5.722;2023-03-26T18:47:41;98390.03;;;12.68;66.01
62548;BME280;48602;45.192;5.722;2023-03-26T18:50:14;98382.63;;;12.58;66.90
62548;BME280;48602;45.192;5.722;2023-03-26T18:52:40;98377.66;;;12.54;67.54
62548;BME280;48602;45.192;5.722;2023-03-26T18:55:09;98377.06;;;12.49;64.74
62548;BME280;48602;45.192;5.722;2023-03-26T18:57:35;98366.97;;;12.26;65.49
62548;BME280;48602;45.192;5.722;2023-03-26T19:00:23;98375.97;;;12.07;66.11
62548;BME280;48602;45.192;5.722;2023-03-26T19:03:05;98381.03;;;11.96;66.89
62548;BME280;48602;45.192;5.722;2023-03-26T19:05:34;98388.50;;;11.90;65.66
62548;BME280;48602;45.192;5.722;2023-03-26T19:08:01;98404.84;;;11.80;65.14
62548;BME280;48602;45.192;5.722;2023-03-26T19:10:28;98408.41;;;11.64;66.02